sensor_id;sensor_type;location;lat;lon;timestamp;P1;durP1;ratioP1;P2;durP2;ratioP2
75971;SDS011;64651;47.540;19.088;2023-12-20T00:00:33;18.95;;;12.57;;
75971;SDS011;64651;47.540;19.088;2023-12-20T00:05:36;19.77;;;12.87;;
75971;SDS011;64651;47.540;19.088;2023-12-20T00:10:40;18.83;;;12.13;;
75971;SDS011;64651;47.540;19.088;2023-12-20T00:15:42;18.98;;;12.55;;
75971;SDS011;64651;47.540;19.088;2023-12-20T00:20:44;19.10;;;13.25;;
75971;SDS011;64651;47.540;19.088;2023-12-20T00:25:46;21.80;;;12.65;;
75971;SDS011;64651;47.540;19.088;2023-12-20T00:30:49;18.83;;;12.20;;
75971;SDS011;64651;47.540;19.088;2023-12-20T00:35:51;21.37;;;12.75;;
75971;SDS011;64651;47.540;19.088;2023-12-20T00:40:53;20.00;;;12.07;;
75971;SDS011;64651;47.540;19.088;2023-12-20T00:45:55;20.52;;;12.35;;
75971;SDS011;64651;47.540;19.088;2023-12-20T00:50:57;17.95;;;11.82;;
75971;SDS011;64651;47.540;19.088;2023-12-20T00:56:00;19.00;;;11.53;;
75971;SDS011;64651;47.540;19.088;2023-12-20T01:01:02;18.62;;;11.82;;
75971;SDS011;64651;47.540;19.088;2023-12-20T01:06:04;17.62;;;11.20;;
75971;SDS011;64651;47.540;19.088;2023-12-20T01:11:07;18.42;;;11.48;;
75971;SDS011;64651;47.540;19.088;2023-12-20T01:16:10;17.15;;;10.90;;
75971;SDS011;64651;47.540;19.088;2023-12-20T01:21:13;19.77;;;12.03;;
75971;SDS011;64651;47.540;19.088;2023-12-20T01:26:15;17.20;;;10.63;;
75971;SDS011;64651;47.540;19.088;2023-12-20T01:31:17;17.27;;;10.57;;
75971;SDS011;64651;47.540;19.088;2023-12-20T01:36:20;17.62;;;11.50;;
75971;SDS011;64651;47.540;19.088;2023-12-20T01:41:22;17.85;;;10.63;;
75971;SDS011;64651;47.540;19.088;2023-12-20T01:46:24;16.13;;;10.50;;
75971;SDS011;64651;47.540;19.088;2023-12-20T01:51:27;16.90;;;10.65;;
75971;SDS011;64651;47.540;19.088;2023-12-20T01:56:30;16.55;;;10.30;;
75971;SDS011;64651;47.540;19.088;2023-12-20T02:01:33;18.48;;;10.75;;
75971;SDS011;64651;47.540;19.088;2023-12-20T02:06:36;16.00;;;9.90;;
75971;SDS011;64651;47.540;19.088;2023-12-20T02:11:42;17.17;;;10.23;;
75971;SDS011;64651;47.540;19.088;2023-12-20T02:16:45;16.85;;;10.27;;
75971;SDS011;64651;47.540;19.088;2023-12-20T02:21:47;16.55;;;10.50;;
75971;SDS011;64651;47.540;19.088;2023-12-20T02:26:49;16.48;;;9.93;;
75971;SDS011;64651;47.540;19.088;2023-12-20T02:31:51;15.70;;;10.00;;
75971;SDS011;64651;47.540;19.088;2023-12-20T02:36:53;17.40;;;10.87;;
75971;SDS011;64651;47.540;19.088;2023-12-20T02:41:56;17.33;;;10.18;;
75971;SDS011;64651;47.540;19.088;2023-12-20T02:46:58;17.10;;;10.13;;
75971;SDS011;64651;47.540;19.088;2023-12-20T02:52:00;16.05;;;10.15;;
75971;SDS011;64651;47.540;19.088;2023-12-20T02:57:02;15.55;;;9.65;;
75971;SDS011;64651;47.540;19.088;2023-12-20T03:02:04;18.23;;;10.73;;
75971;SDS011;64651;47.540;19.088;2023-12-20T03:07:07;16.58;;;10.07;;
75971;SDS011;64651;47.540;19.088;2023-12-20T03:12:09;17.58;;;10.73;;
75971;SDS011;64651;47.540;19.088;2023-12-20T03:17:11;16.45;;;10.43;;
75971;SDS011;64651;47.540;19.088;2023-12-20T03:22:13;16.10;;;10.02;;
75971;SDS011;64651;47.540;19.088;2023-12-20T03:27:15;16.53;;;10.10;;
75971;SDS011;64651;47.540;19.088;2023-12-20T03:32:17;18.23;;;10.27;;
75971;SDS011;64651;47.540;19.088;2023-12-20T03:37:20;15.55;;;10.25;;
75971;SDS011;64651;47.540;19.088;2023-12-20T03:42:23;16.30;;;9.80;;
75971;SDS011;64651;47.540;19.088;2023-12-20T03:47:25;17.67;;;10.43;;
75971;SDS011;64651;47.540;19.088;2023-12-20T03:52:27;15.87;;;10.23;;
75971;SDS011;64651;47.540;19.088;2023-12-20T03:57:30;16.73;;;10.23;;
75971;SDS011;64651;47.540;19.088;2023-12-20T04:02:32;15.02;;;9.85;;
75971;SDS011;64651;47.540;19.088;2023-12-20T04:07:35;16.15;;;9.70;;
75971;SDS011;64651;47.540;19.088;2023-12-20T04:12:37;15.40;;;10.23;;
75971;SDS011;64651;47.540;19.088;2023-12-20T04:17:40;16.63;;;10.23;;
75971;SDS011;64651;47.540;19.088;2023-12-20T04:22:42;15.02;;;9.85;;
75971;SDS011;64651;47.540;19.088;2023-12-20T04:27:44;16.85;;;10.48;;
75971;SDS011;64651;47.540;19.088;2023-12-20T04:32:46;16.17;;;10.07;;
75971;SDS011;64651;47.540;19.088;2023-12-20T04:37:49;16.27;;;9.93;;
75971;SDS011;64651;47.540;19.088;2023-12-20T04:42:51;16.67;;;10.57;;
75971;SDS011;64651;47.540;19.088;2023-12-20T04:47:53;16.45;;;10.27;;
75971;SDS011;64651;47.540;19.088;2023-12-20T04:52:55;15.50;;;9.65;;
75971;SDS011;64651;47.540;19.088;2023-12-20T04:57:57;16.17;;;9.80;;
75971;SDS011;64651;47.540;19.088;2023-12-20T05:03:00;16.12;;;10.18;;
75971;SDS011;64651;47.540;19.088;2023-12-20T05:08:02;14.70;;;9.40;;
75971;SDS011;64651;47.540;19.088;2023-12-20T05:13:05;15.13;;;9.35;;
75971;SDS011;64651;47.540;19.088;2023-12-20T05:18:07;14.93;;;9.57;;
75971;SDS011;64651;47.540;19.088;2023-12-20T05:23:09;15.30;;;9.43;;
75971;SDS011;64651;47.540;19.088;2023-12-20T05:28:11;15.65;;;9.77;;
75971;SDS011;64651;47.540;19.088;2023-12-20T05:33:13;15.17;;;9.47;;
75971;SDS011;64651;47.540;19.088;2023-12-20T05:38:16;15.98;;;9.45;;
75971;SDS011;64651;47.540;19.088;2023-12-20T05:43:18;16.50;;;9.98;;
75971;SDS011;64651;47.540;19.088;2023-12-20T05:48:21;15.68;;;10.48;;
75971;SDS011;64651;47.540;19.088;2023-12-20T05:53:23;16.15;;;9.73;;
75971;SDS011;64651;47.540;19.088;2023-12-20T05:58:25;16.57;;;10.60;;
75971;SDS011;64651;47.540;19.088;2023-12-20T06:03:27;16.58;;;9.98;;
75971;SDS011;64651;47.540;19.088;2023-12-20T06:08:30;15.98;;;10.23;;
75971;SDS011;64651;47.540;19.088;2023-12-20T06:13:32;16.50;;;10.32;;
75971;SDS011;64651;47.540;19.088;2023-12-20T06:18:34;15.98;;;9.88;;
75971;SDS011;64651;47.540;19.088;2023-12-20T06:23:37;14.83;;;9.27;;
75971;SDS011;64651;47.540;19.088;2023-12-20T06:28:40;17.30;;;10.80;;
75971;SDS011;64651;47.540;19.088;2023-12-20T06:33:43;16.60;;;10.63;;
75971;SDS011;64651;47.540;19.088;2023-12-20T06:38:45;16.83;;;11.10;;
75971;SDS011;64651;47.540;19.088;2023-12-20T06:43:48;16.90;;;11.23;;
75971;SDS011;64651;47.540;19.088;2023-12-20T06:48:51;17.57;;;11.13;;
75971;SDS011;64651;47.540;19.088;2023-12-20T06:53:54;16.67;;;10.45;;
75971;SDS011;64651;47.540;19.088;2023-12-20T06:58:56;16.58;;;10.48;;
75971;SDS011;64651;47.540;19.088;2023-12-20T07:03:58;16.12;;;10.20;;
75971;SDS011;64651;47.540;19.088;2023-12-20T07:09:00;15.98;;;10.40;;
75971;SDS011;64651;47.540;19.088;2023-12-20T07:14:02;17.07;;;10.63;;
75971;SDS011;64651;47.540;19.088;2023-12-20T07:19:04;15.82;;;9.98;;
75971;SDS011;64651;47.540;19.088;2023-12-20T07:24:06;17.48;;;10.70;;
75971;SDS011;64651;47.540;19.088;2023-12-20T07:29:09;16.02;;;10.32;;
75971;SDS011;64651;47.540;19.088;2023-12-20T07:34:11;16.02;;;10.50;;
75971;SDS011;64651;47.540;19.088;2023-12-20T07:39:13;15.90;;;10.57;;
75971;SDS011;64651;47.540;19.088;2023-12-20T07:44:16;17.55;;;10.85;;
75971;SDS011;64651;47.540;19.088;2023-12-20T07:49:18;16.12;;;9.90;;
75971;SDS011;64651;47.540;19.088;2023-12-20T07:54:21;17.40;;;10.88;;
75971;SDS011;64651;47.540;19.088;2023-12-20T07:59:23;17.23;;;10.77;;
75971;SDS011;64651;47.540;19.088;2023-12-20T08:04:33;15.77;;;10.43;;
75971;SDS011;64651;47.540;19.088;2023-12-20T08:09:36;17.02;;;10.57;;
75971;SDS011;64651;47.540;19.088;2023-12-20T08:14:38;16.40;;;11.05;;
75971;SDS011;64651;47.540;19.088;2023-12-20T08:19:41;16.65;;;10.35;;
75971;SDS011;64651;47.540;19.088;2023-12-20T08:24:43;18.75;;;11.02;;
75971;SDS011;64651;47.540;19.088;2023-12-20T08:29:45;17.03;;;11.03;;
75971;SDS011;64651;47.540;19.088;2023-12-20T08:34:47;16.70;;;10.35;;
75971;SDS011;64651;47.540;19.088;2023-12-20T08:39:50;17.75;;;11.43;;
75971;SDS011;64651;47.540;19.088;2023-12-20T08:44:52;16.23;;;10.55;;
75971;SDS011;64651;47.540;19.088;2023-12-20T08:49:54;17.48;;;11.15;;
75971;SDS011;64651;47.540;19.088;2023-12-20T08:54:58;17.47;;;11.70;;
75971;SDS011;64651;47.540;19.088;2023-12-20T09:00:00;25.85;;;16.58;;
75971;SDS011;64651;47.540;19.088;2023-12-20T09:05:03;32.30;;;19.92;;
75971;SDS011;64651;47.540;19.088;2023-12-20T09:10:05;31.33;;;19.50;;
75971;SDS011;64651;47.540;19.088;2023-12-20T09:15:08;34.67;;;19.95;;
75971;SDS011;64651;47.540;19.088;2023-12-20T09:20:10;33.13;;;19.63;;
75971;SDS011;64651;47.540;19.088;2023-12-20T09:25:12;27.92;;;16.58;;
75971;SDS011;64651;47.540;19.088;2023-12-20T09:30:16;29.73;;;16.48;;
75971;SDS011;64651;47.540;19.088;2023-12-20T09:35:28;25.45;;;15.57;;
75971;SDS011;64651;47.540;19.088;2023-12-20T09:40:31;24.52;;;15.13;;
75971;SDS011;64651;47.540;19.088;2023-12-20T09:45:34;27.03;;;15.23;;
75971;SDS011;64651;47.540;19.088;2023-12-20T09:50:37;24.52;;;14.90;;
75971;SDS011;64651;47.540;19.088;2023-12-20T09:55:39;27.40;;;16.40;;
75971;SDS011;64651;47.540;19.088;2023-12-20T10:00:43;28.90;;;18.15;;
75971;SDS011;64651;47.540;19.088;2023-12-20T10:05:45;26.33;;;15.77;;
75971;SDS011;64651;47.540;19.088;2023-12-20T10:10:51;26.63;;;16.80;;
75971;SDS011;64651;47.540;19.088;2023-12-20T10:15:54;26.10;;;16.92;;
75971;SDS011;64651;47.540;19.088;2023-12-20T10:20:57;27.25;;;16.92;;
75971;SDS011;64651;47.540;19.088;2023-12-20T10:25:59;25.80;;;16.40;;
75971;SDS011;64651;47.540;19.088;2023-12-20T10:31:02;26.30;;;16.15;;
75971;SDS011;64651;47.540;19.088;2023-12-20T10:36:04;28.03;;;16.90;;
75971;SDS011;64651;47.540;19.088;2023-12-20T10:41:07;28.77;;;16.55;;
75971;SDS011;64651;47.540;19.088;2023-12-20T10:46:11;26.33;;;16.42;;
75971;SDS011;64651;47.540;19.088;2023-12-20T10:51:15;27.13;;;16.52;;
75971;SDS011;64651;47.540;19.088;2023-12-20T10:56:20;25.70;;;16.85;;
75971;SDS011;64651;47.540;19.088;2023-12-20T11:01:23;29.30;;;17.27;;
75971;SDS011;64651;47.540;19.088;2023-12-20T11:06:27;27.20;;;15.80;;
75971;SDS011;64651;47.540;19.088;2023-12-20T11:11:49;23.75;;;14.50;;
75971;SDS011;64651;47.540;19.088;2023-12-20T11:17:09;23.10;;;13.48;;
75971;SDS011;64651;47.540;19.088;2023-12-20T11:22:16;22.62;;;14.02;;
75971;SDS011;64651;47.540;19.088;2023-12-20T11:27:19;19.67;;;11.80;;
75971;SDS011;64651;47.540;19.088;2023-12-20T11:37:31;20.70;;;11.55;;
75971;SDS011;64651;47.540;19.088;2023-12-20T11:42:40;45.10;;;27.20;;
75971;SDS011;64651;47.540;19.088;2023-12-20T11:47:46;47.83;;;29.10;;
75971;SDS011;64651;47.540;19.088;2023-12-20T11:52:51;46.00;;;28.20;;
75971;SDS011;64651;47.540;19.088;2023-12-20T11:57:54;46.10;;;27.08;;
75971;SDS011;64651;47.540;19.088;2023-12-20T12:02:57;54.30;;;28.95;;
75971;SDS011;64651;47.540;19.088;2023-12-20T12:08:00;45.72;;;26.85;;
75971;SDS011;64651;47.540;19.088;2023-12-20T12:29:14;25.53;;;15.37;;
75971;SDS011;64651;47.540;19.088;2023-12-20T12:34:17;21.55;;;13.07;;
75971;SDS011;64651;47.540;19.088;2023-12-20T12:39:20;21.58;;;12.18;;
75971;SDS011;64651;47.540;19.088;2023-12-20T12:44:22;19.30;;;11.07;;
75971;SDS011;64651;47.540;19.088;2023-12-20T12:49:28;19.17;;;11.05;;
75971;SDS011;64651;47.540;19.088;2023-12-20T12:54:31;17.30;;;10.63;;
75971;SDS011;64651;47.540;19.088;2023-12-20T12:59:33;15.90;;;9.13;;
75971;SDS011;64651;47.540;19.088;2023-12-20T13:04:39;13.82;;;9.30;;
75971;SDS011;64651;47.540;19.088;2023-12-20T13:09:41;15.17;;;8.60;;
75971;SDS011;64651;47.540;19.088;2023-12-20T13:14:44;14.75;;;9.02;;
75971;SDS011;64651;47.540;19.088;2023-12-20T13:19:47;13.17;;;8.10;;
75971;SDS011;64651;47.540;19.088;2023-12-20T13:24:49;13.52;;;8.50;;
75971;SDS011;64651;47.540;19.088;2023-12-20T13:29:51;12.55;;;8.07;;
75971;SDS011;64651;47.540;19.088;2023-12-20T13:34:53;12.30;;;7.20;;
75971;SDS011;64651;47.540;19.088;2023-12-20T13:39:56;13.40;;;7.90;;
75971;SDS011;64651;47.540;19.088;2023-12-20T13:44:58;12.97;;;7.57;;
75971;SDS011;64651;47.540;19.088;2023-12-20T13:50:00;12.93;;;7.40;;
75971;SDS011;64651;47.540;19.088;2023-12-20T13:55:03;12.50;;;7.80;;
75971;SDS011;64651;47.540;19.088;2023-12-20T14:00:07;15.03;;;7.30;;
75971;SDS011;64651;47.540;19.088;2023-12-20T14:05:18;15.88;;;7.00;;
75971;SDS011;64651;47.540;19.088;2023-12-20T14:10:21;12.43;;;6.73;;
75971;SDS011;64651;47.540;19.088;2023-12-20T14:15:24;13.95;;;7.62;;
75971;SDS011;64651;47.540;19.088;2023-12-20T14:20:27;13.27;;;6.93;;
75971;SDS011;64651;47.540;19.088;2023-12-20T14:25:31;12.73;;;6.50;;
75971;SDS011;64651;47.540;19.088;2023-12-20T14:30:46;12.57;;;6.93;;
75971;SDS011;64651;47.540;19.088;2023-12-20T14:35:51;11.43;;;6.33;;
75971;SDS011;64651;47.540;19.088;2023-12-20T14:40:54;11.82;;;6.25;;
75971;SDS011;64651;47.540;19.088;2023-12-20T14:45:56;12.95;;;6.32;;
75971;SDS011;64651;47.540;19.088;2023-12-20T14:50:58;12.03;;;6.07;;
75971;SDS011;64651;47.540;19.088;2023-12-20T14:56:01;13.48;;;6.20;;
75971;SDS011;64651;47.540;19.088;2023-12-20T15:01:03;10.73;;;5.90;;
75971;SDS011;64651;47.540;19.088;2023-12-20T15:06:06;12.18;;;6.12;;
75971;SDS011;64651;47.540;19.088;2023-12-20T15:11:11;10.80;;;6.22;;
75971;SDS011;64651;47.540;19.088;2023-12-20T15:16:13;12.73;;;6.27;;
75971;SDS011;64651;47.540;19.088;2023-12-20T15:21:16;11.55;;;5.70;;
75971;SDS011;64651;47.540;19.088;2023-12-20T15:26:19;12.47;;;6.80;;
75971;SDS011;64651;47.540;19.088;2023-12-20T15:31:21;11.35;;;6.12;;
75971;SDS011;64651;47.540;19.088;2023-12-20T15:36:28;11.68;;;5.87;;
75971;SDS011;64651;47.540;19.088;2023-12-20T15:41:30;11.93;;;6.20;;
75971;SDS011;64651;47.540;19.088;2023-12-20T15:46:32;10.52;;;5.80;;
75971;SDS011;64651;47.540;19.088;2023-12-20T15:51:35;12.10;;;6.07;;
75971;SDS011;64651;47.540;19.088;2023-12-20T15:56:38;11.00;;;5.78;;
75971;SDS011;64651;47.540;19.088;2023-12-20T16:01:43;10.85;;;5.97;;
75971;SDS011;64651;47.540;19.088;2023-12-20T16:06:54;11.93;;;6.03;;
75971;SDS011;64651;47.540;19.088;2023-12-20T16:11:56;10.63;;;5.70;;
75971;SDS011;64651;47.540;19.088;2023-12-20T16:16:58;10.57;;;5.73;;
75971;SDS011;64651;47.540;19.088;2023-12-20T16:22:01;10.88;;;5.30;;
75971;SDS011;64651;47.540;19.088;2023-12-20T16:27:07;11.05;;;5.68;;
75971;SDS011;64651;47.540;19.088;2023-12-20T16:32:09;9.83;;;5.50;;
75971;SDS011;64651;47.540;19.088;2023-12-20T16:37:11;11.18;;;6.03;;
75971;SDS011;64651;47.540;19.088;2023-12-20T16:42:14;10.13;;;5.33;;
75971;SDS011;64651;47.540;19.088;2023-12-20T16:47:16;9.93;;;5.30;;
75971;SDS011;64651;47.540;19.088;2023-12-20T16:52:18;11.27;;;5.55;;
75971;SDS011;64651;47.540;19.088;2023-12-20T16:57:20;11.47;;;5.93;;
75971;SDS011;64651;47.540;19.088;2023-12-20T17:02:23;10.13;;;5.80;;
75971;SDS011;64651;47.540;19.088;2023-12-20T17:07:25;9.77;;;5.43;;
75971;SDS011;64651;47.540;19.088;2023-12-20T17:12:29;11.30;;;6.22;;
75971;SDS011;64651;47.540;19.088;2023-12-20T17:17:31;10.35;;;5.57;;
75971;SDS011;64651;47.540;19.088;2023-12-20T17:22:33;10.80;;;5.40;;
75971;SDS011;64651;47.540;19.088;2023-12-20T17:27:35;10.00;;;5.65;;
75971;SDS011;64651;47.540;19.088;2023-12-20T17:32:38;11.87;;;5.63;;
75971;SDS011;64651;47.540;19.088;2023-12-20T17:37:41;11.48;;;6.15;;
75971;SDS011;64651;47.540;19.088;2023-12-20T17:42:44;11.05;;;5.35;;
75971;SDS011;64651;47.540;19.088;2023-12-20T17:47:47;10.17;;;6.13;;
75971;SDS011;64651;47.540;19.088;2023-12-20T17:52:49;11.68;;;5.87;;
75971;SDS011;64651;47.540;19.088;2023-12-20T17:57:51;10.10;;;5.60;;
75971;SDS011;64651;47.540;19.088;2023-12-20T18:02:54;10.60;;;5.65;;
75971;SDS011;64651;47.540;19.088;2023-12-20T18:07:56;10.05;;;5.85;;
75971;SDS011;64651;47.540;19.088;2023-12-20T18:12:58;9.40;;;5.43;;
75971;SDS011;64651;47.540;19.088;2023-12-20T18:18:00;10.45;;;5.30;;
75971;SDS011;64651;47.540;19.088;2023-12-20T18:23:03;10.03;;;5.20;;
75971;SDS011;64651;47.540;19.088;2023-12-20T18:28:05;10.05;;;5.25;;
75971;SDS011;64651;47.540;19.088;2023-12-20T18:33:08;9.27;;;5.53;;
75971;SDS011;64651;47.540;19.088;2023-12-20T18:38:10;9.77;;;5.40;;
75971;SDS011;64651;47.540;19.088;2023-12-20T18:43:13;10.23;;;5.37;;
75971;SDS011;64651;47.540;19.088;2023-12-20T18:48:16;9.40;;;5.67;;
75971;SDS011;64651;47.540;19.088;2023-12-20T18:53:18;10.07;;;5.87;;
75971;SDS011;64651;47.540;19.088;2023-12-20T18:58:20;10.38;;;5.05;;
75971;SDS011;64651;47.540;19.088;2023-12-20T19:03:23;8.90;;;5.10;;
75971;SDS011;64651;47.540;19.088;2023-12-20T19:08:25;8.70;;;5.20;;
75971;SDS011;64651;47.540;19.088;2023-12-20T19:13:27;10.23;;;5.47;;
75971;SDS011;64651;47.540;19.088;2023-12-20T19:18:33;9.52;;;5.37;;
75971;SDS011;64651;47.540;19.088;2023-12-20T19:23:35;9.50;;;5.28;;
75971;SDS011;64651;47.540;19.088;2023-12-20T19:28:39;9.73;;;5.30;;
75971;SDS011;64651;47.540;19.088;2023-12-20T19:33:45;9.40;;;5.53;;
75971;SDS011;64651;47.540;19.088;2023-12-20T19:38:52;9.20;;;5.17;;
75971;SDS011;64651;47.540;19.088;2023-12-20T19:43:54;9.05;;;5.25;;
75971;SDS011;64651;47.540;19.088;2023-12-20T19:49:00;9.65;;;5.72;;
75971;SDS011;64651;47.540;19.088;2023-12-20T19:54:02;9.77;;;5.80;;
75971;SDS011;64651;47.540;19.088;2023-12-20T19:59:04;10.13;;;5.45;;
75971;SDS011;64651;47.540;19.088;2023-12-20T20:04:07;10.33;;;5.70;;
75971;SDS011;64651;47.540;19.088;2023-12-20T20:09:09;10.10;;;5.60;;
75971;SDS011;64651;47.540;19.088;2023-12-20T20:14:12;9.50;;;5.53;;
75971;SDS011;64651;47.540;19.088;2023-12-20T20:19:14;9.57;;;5.57;;
75971;SDS011;64651;47.540;19.088;2023-12-20T20:24:16;9.90;;;5.68;;
75971;SDS011;64651;47.540;19.088;2023-12-20T20:29:18;9.43;;;5.47;;
75971;SDS011;64651;47.540;19.088;2023-12-20T20:34:21;9.70;;;5.22;;
75971;SDS011;64651;47.540;19.088;2023-12-20T20:39:23;9.65;;;5.30;;
75971;SDS011;64651;47.540;19.088;2023-12-20T20:44:25;9.23;;;5.17;;
75971;SDS011;64651;47.540;19.088;2023-12-20T20:49:28;9.65;;;5.57;;
75971;SDS011;64651;47.540;19.088;2023-12-20T20:54:31;9.87;;;5.80;;
75971;SDS011;64651;47.540;19.088;2023-12-20T20:59:33;9.55;;;5.07;;
75971;SDS011;64651;47.540;19.088;2023-12-20T21:04:37;9.40;;;5.05;;
75971;SDS011;64651;47.540;19.088;2023-12-20T21:09:39;8.97;;;4.80;;
75971;SDS011;64651;47.540;19.088;2023-12-20T21:14:41;9.55;;;5.47;;
75971;SDS011;64651;47.540;19.088;2023-12-20T21:19:43;9.30;;;5.10;;
75971;SDS011;64651;47.540;19.088;2023-12-20T21:24:46;9.00;;;5.10;;
75971;SDS011;64651;47.540;19.088;2023-12-20T21:29:48;11.55;;;5.50;;
75971;SDS011;64651;47.540;19.088;2023-12-20T21:34:50;10.13;;;5.40;;
75971;SDS011;64651;47.540;19.088;2023-12-20T21:39:52;10.45;;;5.97;;
75971;SDS011;64651;47.540;19.088;2023-12-20T21:44:55;9.83;;;5.60;;
75971;SDS011;64651;47.540;19.088;2023-12-20T21:49:57;10.10;;;5.60;;
75971;SDS011;64651;47.540;19.088;2023-12-20T21:54:59;11.00;;;6.07;;
75971;SDS011;64651;47.540;19.088;2023-12-20T22:00:02;10.07;;;5.90;;
75971;SDS011;64651;47.540;19.088;2023-12-20T22:05:04;10.98;;;6.25;;
75971;SDS011;64651;47.540;19.088;2023-12-20T22:10:07;10.13;;;6.00;;
75971;SDS011;64651;47.540;19.088;2023-12-20T22:15:11;11.85;;;5.85;;
75971;SDS011;64651;47.540;19.088;2023-12-20T22:20:13;10.00;;;5.87;;
75971;SDS011;64651;47.540;19.088;2023-12-20T22:25:15;9.80;;;5.53;;
75971;SDS011;64651;47.540;19.088;2023-12-20T22:30:18;10.55;;;5.87;;
75971;SDS011;64651;47.540;19.088;2023-12-20T22:35:20;9.83;;;5.90;;
75971;SDS011;64651;47.540;19.088;2023-12-20T22:40:23;9.60;;;5.60;;
75971;SDS011;64651;47.540;19.088;2023-12-20T22:45:25;9.95;;;5.90;;
75971;SDS011;64651;47.540;19.088;2023-12-20T22:50:27;8.80;;;5.23;;
75971;SDS011;64651;47.540;19.088;2023-12-20T22:55:29;10.38;;;5.62;;
75971;SDS011;64651;47.540;19.088;2023-12-20T23:00:31;9.43;;;5.20;;
75971;SDS011;64651;47.540;19.088;2023-12-20T23:05:34;8.77;;;4.62;;
75971;SDS011;64651;47.540;19.088;2023-12-20T23:10:36;9.05;;;4.57;;
75971;SDS011;64651;47.540;19.088;2023-12-20T23:15:39;8.57;;;4.80;;
75971;SDS011;64651;47.540;19.088;2023-12-20T23:20:41;9.05;;;4.72;;
75971;SDS011;64651;47.540;19.088;2023-12-20T23:25:45;9.07;;;4.53;;
75971;SDS011;64651;47.540;19.088;2023-12-20T23:30:47;8.82;;;4.65;;
75971;SDS011;64651;47.540;19.088;2023-12-20T23:35:49;8.48;;;4.85;;
75971;SDS011;64651;47.540;19.088;2023-12-20T23:40:51;8.70;;;4.50;;
75971;SDS011;64651;47.540;19.088;2023-12-20T23:45:54;8.25;;;4.65;;
75971;SDS011;64651;47.540;19.088;2023-12-20T23:50:56;8.63;;;4.37;;
75971;SDS011;64651;47.540;19.088;2023-12-20T23:55:58;8.27;;;4.60;;
